Time;durP1;ratioP1;P1;durP2;ratioP2;P2;SDS_P1;SDS_P2;PMS_P1;PMS_P2;Temp;Humidity;BMP_temperature;BMP_pressure;BME280_temperature;BME280_humidity;BME280_pressure;Samples;Min_cycle;Max_cycle;Signal;HPM_P1;HPM_P2
2022/12/29 00:01:23;;;;;;;3.38;2.22;;;;;;;4.88;100.00;95384.09;5110720;27;24441;-79
2022/12/29 00:03:51;;;;;;;4.63;2.25;;;;;;;4.99;100.00;95386.16;5112808;27;24432;-79
2022/12/29 00:06:18;;;;;;;4.30;2.33;;;;;;;5.22;100.00;95385.88;5115874;27;24807;-78
2022/12/29 00:08:44;;;;;;;3.90;2.30;;;;;;;5.22;100.00;95377.38;5117244;27;24472;-80
2022/12/29 00:11:14;;;;;;;3.97;1.73;;;;;;;5.22;100.00;95378.19;5124660;27;24441;-79
2022/12/29 00:16:25;;;;;;;2.57;1.40;;;;;;;5.37;100.00;95363.78;5106209;27;24405;-80
2022/12/29 00:18:53;;;;;;;2.60;1.70;;;;;;;5.44;100.00;95360.00;5114960;27;24436;-78
2022/12/29 00:35:16;;;;;;;2.33;1.60;;;;;;;5.96;100.00;95351.47;5117313;27;25028;-79
2022/12/29 00:45:59;;;;;;;3.03;1.42;;;;;;;6.11;100.00;95340.38;5122657;27;24533;-78
2022/12/29 00:51:16;;;;;;;2.42;1.35;;;;;;;6.13;100.00;95332.59;5049511;28;24446;-77
2022/12/29 00:53:43;;;;;;;4.63;1.65;;;;;;;6.07;100.00;95347.41;5116003;27;24465;-77
2022/12/29 00:56:09;;;;;;;3.03;1.40;;;;;;;5.96;100.00;95336.88;5120002;27;24434;-78
2022/12/29 00:58:35;;;;;;;9.27;1.67;;;;;;;5.95;100.00;95345.50;5120847;27;24434;-78
2022/12/29 01:01:03;;;;;;;5.18;1.52;;;;;;;5.95;100.00;95342.09;5127345;27;24792;-80
2022/12/29 01:03:29;;;;;;;5.17;1.50;;;;;;;5.91;100.00;95351.66;5107984;28;24475;-78
2022/12/29 01:05:56;;;;;;;2.30;1.40;;;;;;;5.93;100.00;95347.31;5118817;27;24527;-77
2022/12/29 01:08:23;;;;;;;3.42;1.30;;;;;;;6.03;100.00;95348.50;5110871;27;24430;-78
2022/12/29 01:10:58;;;;;;;4.70;1.20;;;;;;;6.14;100.00;95345.38;5109558;27;24827;-78
2022/12/29 01:13:24;;;;;;;3.93;1.33;;;;;;;6.21;100.00;95351.03;5109001;27;24449;-77
2022/12/29 01:15:51;;;;;;;3.15;1.42;;;;;;;6.22;100.00;95342.41;5117201;27;24799;-77
2022/12/29 01:18:17;;;;;;;2.92;1.30;;;;;;;6.30;100.00;95353.97;5117259;27;24434;-78
2022/12/29 01:20:44;;;;;;;2.78;1.10;;;;;;;6.47;100.00;95355.63;5118824;27;24433;-77
2022/12/29 01:23:10;;;;;;;2.28;1.02;;;;;;;6.54;100.00;95359.53;5120124;27;24441;-78
2022/12/29 01:25:38;;;;;;;2.88;1.33;;;;;;;6.69;100.00;95349.34;5130099;27;24441;-78
2022/12/29 01:28:06;;;;;;;2.20;0.80;;;;;;;6.81;100.00;95352.97;5120854;27;24434;-77
2022/12/29 01:30:33;;;;;;;3.20;1.10;;;;;;;6.86;100.00;95362.13;5120750;27;21331;-78
2022/12/29 01:33:00;;;;;;;4.68;1.17;;;;;;;6.94;100.00;95362.53;5108617;27;24461;-78
2022/12/29 01:35:26;;;;;;;3.03;1.00;;;;;;;7.09;100.00;95358.28;5118864;27;24445;-79
2022/12/29 01:37:52;;;;;;;4.75;0.90;;;;;;;7.23;100.00;95365.22;5105852;27;24438;-79
2022/12/29 01:40:19;;;;;;;3.78;1.10;;;;;;;7.89;100.00;95361.44;5113832;27;24808;-78
2022/12/29 01:42:47;;;;;;;3.75;1.10;;;;;;;7.88;100.00;95362.38;5117894;27;24643;-77
2022/12/29 01:45:16;;;;;;;4.45;1.30;;;;;;;8.03;100.00;95355.47;5122519;27;25040;-77
2022/12/29 01:47:45;;;;;;;2.63;1.05;;;;;;;8.11;100.00;95358.41;5122298;27;20807;-78
2022/12/29 01:50:16;;;;;;;1.10;0.77;;;;;;;8.05;100.00;95357.06;5113395;27;20801;-77
2022/12/29 01:52:49;;;;;;;1.63;0.90;;;;;;;8.18;100.00;95349.41;5117530;27;21409;-78
2022/12/29 01:55:16;;;;;;;2.45;1.00;;;;;;;8.24;100.00;95336.13;5119764;27;20774;-79
2022/12/29 01:57:47;;;;;;;3.25;1.05;;;;;;;8.23;100.00;95350.78;5105115;28;20758;-78
2022/12/29 02:00:16;;;;;;;2.60;1.05;;;;;;;8.39;100.00;95342.97;5119949;27;24425;-78
2022/12/29 02:02:45;;;;;;;4.60;1.38;;;;;;;8.45;100.00;95340.03;5125188;27;21163;-78
2022/12/29 02:05:18;;;;;;;2.17;0.85;;;;;;;8.56;100.00;95335.94;5115078;27;24441;-77
2022/12/29 02:07:46;;;;;;;2.72;1.00;;;;;;;8.40;100.00;95342.03;5101602;28;20661;-78
2022/12/29 02:10:13;;;;;;;2.40;0.88;;;;;;;8.36;100.00;95334.56;5125212;27;24421;-79
2022/12/29 02:12:40;;;;;;;1.48;0.75;;;;;;;8.40;100.00;95330.91;5119774;27;24437;-78
2022/12/29 02:15:07;;;;;;;2.67;0.90;;;;;;;8.91;100.00;95326.00;5120065;27;20795;-78
2022/12/29 02:18:01;;;;;;;3.40;0.95;;;;;;;9.03;100.00;95330.38;5124491;27;20803;-79
2022/12/29 02:20:52;;;;;;;3.03;0.95;;;;;;;8.95;100.00;95328.28;5121292;27;20758;-78
2022/12/29 02:23:45;;;;;;;3.00;1.08;;;;;;;9.11;100.00;95327.31;5115524;27;20631;-78
2022/12/29 02:26:42;;;;;;;2.63;1.07;;;;;;;8.96;100.00;95339.44;5112556;27;20769;-78
2022/12/29 02:29:31;;;;;;;2.05;0.93;;;;;;;8.85;100.00;95334.97;5119332;27;20726;-78
2022/12/29 02:32:02;;;;;;;1.77;0.82;;;;;;;9.02;100.00;95322.75;5111125;27;24429;-78
2022/12/29 02:34:41;;;;;;;2.83;1.08;;;;;;;9.08;100.00;95328.34;5126556;27;20708;-78
2022/12/29 02:37:16;;;;;;;3.30;1.00;;;;;;;9.07;100.00;95325.84;5110201;27;20667;-79
2022/12/29 02:39:51;;;;;;;1.88;1.30;;;;;;;8.93;100.00;95329.31;5112353;27;20740;-78
2022/12/29 02:42:23;;;;;;;3.03;1.10;;;;;;;8.99;100.00;95330.69;5108290;27;21025;-78
2022/12/29 02:44:56;;;;;;;1.60;0.75;;;;;;;9.12;100.00;95316.03;5118826;27;20682;-78
2022/12/29 02:47:30;;;;;;;6.10;1.27;;;;;;;8.99;100.00;95325.53;5114723;28;21310;-78
2022/12/29 02:50:06;;;;;;;1.17;0.82;;;;;;;8.83;100.00;95323.09;5113517;27;21337;-78
2022/12/29 02:52:37;;;;;;;5.97;1.13;;;;;;;8.75;100.00;95321.00;5119176;27;21325;-78
2022/12/29 02:55:04;;;;;;;1.83;0.70;;;;;;;8.75;100.00;95315.81;5119459;28;20724;-78
2022/12/29 02:57:33;;;;;;;1.88;1.02;;;;;;;8.71;100.00;95320.34;5120746;28;20764;-79
2022/12/29 03:00:07;;;;;;;5.07;1.25;;;;;;;8.55;100.00;95327.38;5117105;28;20811;-79
2022/12/29 03:02:57;;;;;;;4.70;1.23;;;;;;;8.35;100.00;95331.16;5106905;28;21088;-80
2022/12/29 03:05:40;;;;;;;2.42;1.00;;;;;;;8.23;100.00;95319.84;5120355;28;21142;-79
2022/12/29 03:08:18;;;;;;;3.85;1.20;;;;;;;8.45;100.00;95314.22;5117989;28;20772;-79
2022/12/29 03:10:51;;;;;;;5.15;1.00;;;;;;;8.54;100.00;95315.41;5112351;28;20680;-79
2022/12/29 03:16:18;;;;;;;2.05;0.80;;;;;;;8.43;100.00;95304.91;5109828;28;20670;-78
2022/12/29 03:18:52;;;;;;;3.30;1.10;;;;;;;8.41;100.00;95291.25;5112422;28;20738;-79
2022/12/29 03:22:26;;;;;;;3.15;1.40;;;;;;;8.42;100.00;95295.53;5124663;28;24436;-78
2022/12/29 03:24:14;;;;;;;1.63;0.90;;;;;;;8.42;100.00;95293.75;5116087;28;20849;-77
2022/12/29 03:26:42;;;;;;;2.67;0.85;;;;;;;8.36;100.00;95288.13;5116161;28;21454;-77
2022/12/29 03:29:10;;;;;;;2.58;1.02;;;;;;;8.28;100.00;95292.94;5126623;28;24447;-77
2022/12/29 03:31:38;;;;;;;2.75;1.08;;;;;;;8.41;100.00;95292.09;5123024;28;20766;-77
2022/12/29 03:34:08;;;;;;;1.88;0.80;;;;;;;8.47;100.00;95278.81;5129479;28;20796;-78
2022/12/29 03:36:43;;;;;;;2.37;0.93;;;;;;;8.56;100.00;95281.75;5111662;28;21309;-78
2022/12/29 03:39:12;;;;;;;3.08;1.00;;;;;;;8.34;100.00;95284.78;5115345;28;20635;-79
2022/12/29 03:41:42;;;;;;;3.47;1.00;;;;;;;8.43;100.00;95276.53;5114640;27;20761;-79
2022/12/29 03:44:09;;;;;;;2.63;0.80;;;;;;;8.35;100.00;95271.81;5119476;28;21255;-78
2022/12/29 03:46:35;;;;;;;2.08;1.00;;;;;;;8.65;100.00;95286.34;5100738;28;20791;-78
2022/12/29 03:49:02;;;;;;;1.85;1.13;;;;;;;8.45;100.00;95287.56;5119076;28;20778;-78
2022/12/29 03:51:30;;;;;;;1.67;1.03;;;;;;;8.38;100.00;95288.88;5120310;27;24430;-77
2022/12/29 03:53:56;;;;;;;3.97;1.25;;;;;;;8.37;100.00;95275.13;5116599;27;21177;-78
2022/12/29 03:56:23;;;;;;;2.72;1.20;;;;;;;8.39;100.00;95282.81;5121382;27;24468;-78
2022/12/29 03:58:49;;;;;;;4.05;1.10;;;;;;;8.18;100.00;95277.16;5125761;27;24440;-77
2022/12/29 04:01:16;;;;;;;3.33;0.98;;;;;;;8.22;100.00;95270.91;5119258;27;24445;-78
2022/12/29 04:03:42;;;;;;;2.45;1.08;;;;;;;8.16;100.00;95272.13;5128901;27;24428;-78
2022/12/29 04:06:09;;;;;;;3.20;1.10;;;;;;;8.29;100.00;95285.09;5116380;27;24433;-78
2022/12/29 04:08:37;;;;;;;2.43;1.10;;;;;;;8.23;100.00;95291.47;5123187;27;24443;-78
2022/12/29 04:11:04;;;;;;;9.20;1.10;;;;;;;8.28;100.00;95291.16;5121706;27;20805;-79
2022/12/29 04:13:30;;;;;;;3.25;1.20;;;;;;;8.36;100.00;95304.44;5123064;27;20842;-78
2022/12/29 04:15:57;;;;;;;2.03;0.90;;;;;;;8.30;100.00;95298.81;5126396;27;24997;-78
2022/12/29 04:18:23;;;;;;;4.22;1.17;;;;;;;8.33;100.00;95296.03;5105932;28;24975;-79
2022/12/29 04:21:02;;;;;;;2.88;1.00;;;;;;;8.38;100.00;95299.19;5122196;27;24503;-79
2022/12/29 04:23:29;;;;;;;2.23;0.90;;;;;;;8.53;100.00;95277.63;5121226;27;20638;-78
2022/12/29 04:25:57;;;;;;;3.80;1.20;;;;;;;8.66;100.00;95282.81;5123775;27;24433;-78
2022/12/29 04:28:24;;;;;;;1.77;0.90;;;;;;;8.57;100.00;95283.41;5119801;27;20894;-78
2022/12/29 04:30:50;;;;;;;2.33;1.07;;;;;;;8.69;100.00;95280.06;5108125;27;24449;-78
2022/12/29 04:33:17;;;;;;;5.55;1.35;;;;;;;8.83;100.00;95280.00;5111107;27;24461;-77
2022/12/29 04:35:44;;;;;;;1.35;0.88;;;;;;;8.85;100.00;95283.31;5124548;27;20780;-78
2022/12/29 04:38:11;;;;;;;2.75;1.08;;;;;;;8.81;100.00;95274.09;5113781;27;20771;-79
2022/12/29 04:40:38;;;;;;;2.28;1.27;;;;;;;8.72;100.00;95278.13;5122101;27;20766;-78
2022/12/29 04:43:06;;;;;;;1.65;1.00;;;;;;;8.62;100.00;95278.78;5128121;27;24440;-78
2022/12/29 04:45:33;;;;;;;2.20;1.05;;;;;;;8.70;100.00;95284.28;5126287;27;21148;-77
2022/12/29 04:47:59;;;;;;;1.65;0.98;;;;;;;8.60;100.00;95270.28;5117770;27;24430;-78
2022/12/29 04:50:26;;;;;;;2.80;1.05;;;;;;;8.85;100.00;95275.56;5113868;27;24442;-77
2022/12/29 04:52:52;;;;;;;2.80;0.95;;;;;;;8.63;100.00;95272.69;5119673;27;24454;-78
2022/12/29 04:55:19;;;;;;;2.23;0.97;;;;;;;8.55;100.00;95262.84;5110444;27;24453;-78
2022/12/29 04:57:45;;;;;;;1.73;0.98;;;;;;;8.76;100.00;95255.50;5117804;27;20779;-78
2022/12/29 05:00:14;;;;;;;2.07;1.10;;;;;;;8.76;100.00;95254.69;5118397;27;24444;-79
2022/12/29 05:02:41;;;;;;;2.22;1.23;;;;;;;8.65;100.00;95258.78;5120888;27;20768;-79
2022/12/29 05:05:08;;;;;;;2.03;1.20;;;;;;;8.77;100.00;95264.91;5126601;27;24438;-77
2022/12/29 05:07:35;;;;;;;1.23;0.80;;;;;;;8.70;100.00;95258.47;5113089;27;20772;-76
2022/12/29 05:10:01;;;;;;;4.22;1.08;;;;;;;8.77;100.00;95257.16;5122206;27;24445;-77
2022/12/29 05:12:30;;;;;;;2.45;1.30;;;;;;;8.82;100.00;95252.50;5101277;27;24442;-76
2022/12/29 05:14:57;;;;;;;2.13;1.20;;;;;;;8.72;100.00;95256.63;5098202;28;20830;-76
2022/12/29 05:17:25;;;;;;;2.38;1.15;;;;;;;8.82;100.00;95259.44;5113333;27;20783;-76
2022/12/29 05:19:51;;;;;;;2.10;1.30;;;;;;;8.72;100.00;95260.03;5103008;27;20839;-75
2022/12/29 05:22:19;;;;;;;2.72;1.48;;;;;;;8.69;100.00;95259.41;5118481;27;24440;-76
2022/12/29 05:24:45;;;;;;;4.28;1.02;;;;;;;8.80;100.00;95267.28;5114815;27;20776;-77
2022/12/29 05:27:11;;;;;;;1.83;1.30;;;;;;;8.68;100.00;95268.09;5123242;27;24831;-78
2022/12/29 05:29:38;;;;;;;3.08;1.58;;;;;;;8.69;100.00;95260.22;5122915;27;21174;-77
2022/12/29 05:32:05;;;;;;;2.20;1.30;;;;;;;8.53;100.00;95263.84;5120502;27;24508;-76
2022/12/29 05:34:33;;;;;;;2.28;1.13;;;;;;;8.69;100.00;95267.97;5108821;27;20803;-77
2022/12/29 05:36:59;;;;;;;4.43;1.30;;;;;;;8.72;100.00;95269.53;5118647;27;24518;-76
2022/12/29 05:39:25;;;;;;;1.98;1.25;;;;;;;8.56;100.00;95276.56;5120161;27;20784;-76
2022/12/29 05:41:52;;;;;;;2.53;1.30;;;;;;;8.64;100.00;95276.91;5104176;27;20772;-77
2022/12/29 05:44:18;;;;;;;2.65;1.52;;;;;;;8.61;100.00;95275.38;5121818;27;24441;-77
2022/12/29 05:46:45;;;;;;;3.63;1.20;;;;;;;8.62;100.00;95274.44;5113671;27;20767;-77
2022/12/29 05:49:12;;;;;;;3.42;1.45;;;;;;;8.56;100.00;95279.16;5118489;27;20805;-77
2022/12/29 05:51:40;;;;;;;2.67;1.40;;;;;;;8.48;100.00;95275.31;5116732;27;24480;-75
2022/12/29 05:54:06;;;;;;;2.40;1.45;;;;;;;8.56;100.00;95274.00;5118224;27;20807;-76
2022/12/29 05:56:33;;;;;;;7.53;4.63;;;;;;;8.61;100.00;95269.41;5113618;27;24948;-76
2022/12/29 05:58:59;;;;;;;5.55;3.08;;;;;;;8.60;100.00;95271.16;5125767;27;24819;-76
2022/12/29 06:01:26;;;;;;;6.63;4.00;;;;;;;8.44;100.00;95265.28;5107231;27;24434;-75
2022/12/29 06:03:52;;;;;;;2.28;1.30;;;;;;;8.46;100.00;95259.09;5120958;27;24449;-76
2022/12/29 06:06:19;;;;;;;5.18;1.38;;;;;;;8.41;100.00;95266.28;5108795;27;24437;-75
2022/12/29 06:08:47;;;;;;;2.42;1.38;;;;;;;8.32;100.00;95266.00;5116638;27;24433;-76
2022/12/29 06:11:13;;;;;;;2.15;1.27;;;;;;;8.26;100.00;95269.78;5111132;27;21312;-76
2022/12/29 06:13:40;;;;;;;3.10;1.55;;;;;;;8.37;100.00;95272.56;5115751;27;24437;-76
2022/12/29 06:16:07;;;;;;;2.65;1.30;;;;;;;8.45;100.00;95270.34;5101737;27;24453;-76
2022/12/29 06:18:33;;;;;;;4.35;1.75;;;;;;;8.41;100.00;95276.59;5111982;27;20762;-76
2022/12/29 06:21:01;;;;;;;2.72;1.70;;;;;;;8.47;100.00;95265.91;5118993;27;24448;-77
2022/12/29 06:23:27;;;;;;;4.97;1.60;;;;;;;8.44;100.00;95266.09;5126192;27;21126;-76
2022/12/29 06:25:55;;;;;;;2.45;1.10;;;;;;;8.42;100.00;95273.13;5096214;28;24441;-77
2022/12/29 06:28:21;;;;;;;3.10;1.77;;;;;;;8.31;100.00;95265.19;5104773;28;20914;-76
2022/12/29 06:30:48;;;;;;;3.23;1.60;;;;;;;8.38;100.00;95269.09;5109965;27;20770;-76
2022/12/29 06:33:15;;;;;;;3.30;1.40;;;;;;;8.35;100.00;95266.66;5112469;27;20794;-76
2022/12/29 06:35:42;;;;;;;3.15;1.45;;;;;;;8.40;100.00;95268.97;5098319;27;20806;-76
2022/12/29 06:38:09;;;;;;;2.47;1.42;;;;;;;8.51;100.00;95266.56;5106683;27;24444;-76
2022/12/29 06:40:36;;;;;;;1.95;1.17;;;;;;;8.58;100.00;95257.50;5119028;27;20766;-76
2022/12/29 06:43:03;;;;;;;2.58;1.48;;;;;;;8.52;100.00;95257.06;5114419;27;24433;-76
2022/12/29 06:45:30;;;;;;;3.00;1.38;;;;;;;8.56;100.00;95251.59;5112025;28;24430;-74
2022/12/29 06:47:56;;;;;;;2.55;1.45;;;;;;;8.55;100.00;95257.69;5110775;28;24994;-77
2022/12/29 06:50:23;;;;;;;3.88;1.58;;;;;;;8.50;100.00;95258.91;5123477;27;20768;-76
2022/12/29 06:52:49;;;;;;;3.15;1.52;;;;;;;8.40;100.00;95249.16;5118942;27;24429;-76
2022/12/29 06:55:16;;;;;;;2.55;1.50;;;;;;;8.40;100.00;95244.00;5123169;28;24461;-76
2022/12/29 06:57:42;;;;;;;2.58;1.20;;;;;;;8.47;100.00;95253.00;5113665;28;24430;-76
2022/12/29 07:00:11;;;;;;;3.45;1.60;;;;;;;8.53;100.00;95250.94;5118284;28;24434;-77
2022/12/29 07:02:38;;;;;;;2.53;1.45;;;;;;;8.47;100.00;95250.44;5116092;28;20826;-75
2022/12/29 07:05:05;;;;;;;4.03;1.50;;;;;;;8.45;100.00;95249.72;5103419;28;20776;-75
2022/12/29 07:07:31;;;;;;;3.67;1.60;;;;;;;8.58;100.00;95251.50;5113393;28;20772;-75
2022/12/29 07:09:58;;;;;;;2.30;1.30;;;;;;;8.36;100.00;95260.56;5125218;28;24445;-75
2022/12/29 07:12:24;;;;;;;6.95;1.45;;;;;;;8.32;100.00;95251.34;5093839;28;24434;-76
2022/12/29 07:14:50;;;;;;;4.33;1.60;;;;;;;8.46;100.00;95256.53;5113895;28;24458;-75
2022/12/29 07:17:18;;;;;;;4.35;1.77;;;;;;;8.52;100.00;95270.78;5102293;28;24437;-76
2022/12/29 07:19:45;;;;;;;1.95;1.17;;;;;;;8.51;100.00;95270.88;5123773;28;24974;-75
2022/12/29 07:22:11;;;;;;;2.92;1.50;;;;;;;8.52;100.00;95268.19;5108617;28;24441;-71
2022/12/29 07:24:38;;;;;;;3.08;1.70;;;;;;;8.45;100.00;95265.19;5097867;28;24473;-76
2022/12/29 07:27:05;;;;;;;5.30;1.20;;;;;;;8.53;100.00;95266.44;5118184;27;24495;-76
2022/12/29 07:29:31;;;;;;;5.63;1.60;;;;;;;8.51;100.00;95271.72;5122691;27;20768;-76
2022/12/29 07:31:58;;;;;;;2.65;1.27;;;;;;;8.62;100.00;95279.59;5118152;27;21296;-76
2022/12/29 07:34:26;;;;;;;3.35;1.55;;;;;;;8.77;100.00;95280.41;5125252;27;20772;-75
2022/12/29 07:36:52;;;;;;;4.10;2.00;;;;;;;8.68;100.00;95281.81;5127709;27;20792;-76
2022/12/29 07:39:19;;;;;;;2.00;1.20;;;;;;;8.56;100.00;95289.47;5125406;27;20764;-76
2022/12/29 07:41:45;;;;;;;13.23;2.05;;;;;;;8.67;100.00;95280.13;5123807;27;20771;-75
2022/12/29 07:44:12;;;;;;;4.22;1.50;;;;;;;8.75;100.00;95284.00;5124008;27;24433;-75
2022/12/29 07:46:38;;;;;;;3.08;1.45;;;;;;;8.84;100.00;95279.09;5114292;27;20783;-77
2022/12/29 07:49:05;;;;;;;2.92;1.40;;;;;;;8.88;100.00;95267.63;5123837;27;20771;-76
2022/12/29 07:51:33;;;;;;;2.92;1.40;;;;;;;8.89;100.00;95277.03;5109669;27;25006;-75
2022/12/29 07:54:00;;;;;;;3.33;1.50;;;;;;;8.82;100.00;95273.16;5124456;27;20891;-75
2022/12/29 07:56:27;;;;;;;4.10;1.37;;;;;;;8.93;100.00;95272.50;5115292;27;20905;-75
2022/12/29 07:58:53;;;;;;;2.63;1.20;;;;;;;8.94;100.00;95282.75;5124353;27;24440;-75
2022/12/29 08:01:21;;;;;;;3.10;1.48;;;;;;;8.87;100.00;95285.81;5124171;27;24744;-75
2022/12/29 08:03:47;;;;;;;5.25;1.42;;;;;;;8.94;100.00;95290.50;5119969;27;20780;-76
2022/12/29 08:06:14;;;;;;;4.47;1.38;;;;;;;9.01;100.00;95300.41;5111474;27;24429;-75
2022/12/29 08:08:41;;;;;;;2.33;1.30;;;;;;;8.98;100.00;95305.78;5118672;27;24448;-73
2022/12/29 08:11:08;;;;;;;3.87;1.20;;;;;;;9.08;100.00;95312.81;5123177;27;24439;-75
2022/12/29 08:13:34;;;;;;;2.83;1.40;;;;;;;9.06;100.00;95313.88;5122793;27;24437;-74
2022/12/29 08:16:01;;;;;;;2.58;1.10;;;;;;;9.12;100.00;95303.13;5118406;27;20784;-75
2022/12/29 08:18:27;;;;;;;3.92;1.35;;;;;;;9.12;100.00;95314.31;5118960;27;24528;-75
2022/12/29 08:20:54;;;;;;;2.63;1.10;;;;;;;9.23;100.00;95311.00;5124468;27;24433;-75
2022/12/29 08:23:20;;;;;;;4.72;1.35;;;;;;;9.26;100.00;95321.16;5119967;27;24972;-76
2022/12/29 08:25:57;;;;;;;2.40;1.30;;;;;;;9.48;100.00;95305.06;5113215;27;24434;-72
2022/12/29 08:28:24;;;;;;;3.03;1.27;;;;;;;9.52;100.00;95293.59;5119436;27;21043;-75
2022/12/29 08:30:50;;;;;;;4.20;1.30;;;;;;;9.62;100.00;95299.00;5122677;27;24807;-75
2022/12/29 08:33:17;;;;;;;2.88;1.27;;;;;;;9.73;99.85;95298.28;5123647;27;24796;-75
2022/12/29 08:35:43;;;;;;;2.13;1.10;;;;;;;9.68;100.00;95303.78;5121325;27;24463;-75
2022/12/29 08:38:11;;;;;;;3.20;1.25;;;;;;;9.80;99.98;95295.19;5121255;27;20775;-75
2022/12/29 08:40:37;;;;;;;3.80;1.30;;;;;;;9.76;100.00;95303.25;5122934;27;20774;-75
2022/12/29 08:43:05;;;;;;;2.67;1.40;;;;;;;9.60;100.00;95306.88;5123693;27;24429;-76
2022/12/29 08:45:32;;;;;;;4.45;1.45;;;;;;;9.66;100.00;95308.22;5112364;27;20805;-76
2022/12/29 08:47:58;;;;;;;3.70;1.50;;;;;;;9.55;100.00;95311.50;5117913;27;24454;-77
2022/12/29 08:50:25;;;;;;;3.03;1.50;;;;;;;9.74;100.00;95303.34;5109456;27;24434;-76
2022/12/29 08:52:51;;;;;;;2.50;1.30;;;;;;;9.72;100.00;95305.22;5111919;27;24967;-77
2022/12/29 08:55:18;;;;;;;4.20;1.30;;;;;;;9.77;100.00;95310.09;5120771;27;24497;-76
2022/12/29 08:57:44;;;;;;;2.65;1.20;;;;;;;9.86;100.00;95314.63;5124847;27;24440;-76
2022/12/29 09:00:14;;;;;;;4.15;1.35;;;;;;;9.94;100.00;95310.63;5100993;27;24442;-76
2022/12/29 09:02:41;;;;;;;5.23;1.57;;;;;;;10.01;99.67;95320.53;5124757;27;24470;-75
2022/12/29 09:05:09;;;;;;;3.70;1.70;;;;;;;9.92;100.00;95312.47;5100640;27;24452;-76
2022/12/29 09:07:36;;;;;;;4.38;2.25;;;;;;;10.00;100.00;95314.53;5124056;27;21321;-76
2022/12/29 09:10:02;;;;;;;4.00;1.60;;;;;;;10.09;98.83;95321.69;5101484;27;24437;-76
2022/12/29 09:12:29;;;;;;;4.15;1.60;;;;;;;10.26;98.25;95317.97;5119778;27;24429;-76
2022/12/29 09:14:55;;;;;;;2.40;1.80;;;;;;;10.17;99.02;95318.56;5111785;27;24433;-76
2022/12/29 09:17:42;;;;;;;5.95;3.92;;;;;;;10.21;98.83;95322.59;5122929;27;24433;-76
2022/12/29 09:20:09;;;;;;;3.42;1.38;;;;;;;10.27;98.62;95326.53;5111549;27;24464;-77
2022/12/29 09:22:36;;;;;;;2.85;1.30;;;;;;;10.39;97.74;95317.97;5121072;27;24465;-76
2022/12/29 09:25:03;;;;;;;6.45;1.58;;;;;;;10.48;96.74;95326.84;5101016;27;24438;-76
2022/12/29 09:27:30;;;;;;;2.63;1.48;;;;;;;10.40;97.72;95330.78;5119425;27;20783;-76
2022/12/29 09:29:57;;;;;;;3.42;1.40;;;;;;;10.41;97.37;95335.03;5108559;27;24462;-76
2022/12/29 09:32:25;;;;;;;2.90;1.30;;;;;;;10.39;98.43;95339.50;5117708;27;24765;-76
2022/12/29 09:34:51;;;;;;;2.83;1.27;;;;;;;10.38;100.00;95345.59;5125410;27;25059;-76
2022/12/29 09:37:18;;;;;;;3.45;1.00;;;;;;;10.48;99.91;95338.03;5112487;27;24810;-76
2022/12/29 09:39:44;;;;;;;2.17;1.10;;;;;;;10.65;99.25;95331.69;5124183;27;25729;-76
2022/12/29 09:42:19;;;;;;;1.65;1.00;;;;;;;10.54;100.00;95347.97;5118630;27;24444;-76
2022/12/29 09:44:55;;;;;;;4.60;1.20;;;;;;;10.56;100.00;95337.47;5121968;27;24987;-76
2022/12/29 09:47:26;;;;;;;2.28;1.10;;;;;;;10.54;100.00;95342.78;5117140;27;24450;-76
2022/12/29 09:49:57;;;;;;;2.67;0.98;;;;;;;10.64;100.00;95342.94;5109284;27;24432;-76
2022/12/29 09:52:29;;;;;;;13.20;1.38;;;;;;;10.71;99.65;95349.34;5110914;27;24445;-76
2022/12/29 09:54:59;;;;;;;2.25;1.17;;;;;;;10.76;99.15;95342.13;5119867;27;24441;-76
2022/12/29 09:57:30;;;;;;;3.30;1.15;;;;;;;10.84;99.32;95347.56;5124161;27;20813;-76
2022/12/29 10:00:04;;;;;;;2.80;1.15;;;;;;;10.84;99.07;95344.97;5115715;27;24429;-76
2022/12/29 10:02:38;;;;;;;2.70;1.33;;;;;;;10.91;98.58;95347.97;5123577;27;24448;-77
2022/12/29 10:05:13;;;;;;;4.40;1.10;;;;;;;10.93;99.24;95345.25;5114989;27;24795;-76
2022/12/29 10:07:46;;;;;;;5.15;1.10;;;;;;;10.96;100.00;95356.25;5117651;27;24438;-75
2022/12/29 10:10:28;;;;;;;1.77;0.80;;;;;;;10.97;99.52;95349.28;5113833;27;24437;-75
2022/12/29 10:13:21;;;;;;;1.60;0.95;;;;;;;10.99;98.80;95355.22;5108244;27;24432;-75
2022/12/29 10:15:58;;;;;;;2.30;1.05;;;;;;;10.87;99.87;95349.13;5120990;27;24520;-76
2022/12/29 10:18:40;;;;;;;1.77;1.00;;;;;;;10.75;100.00;95348.22;5104078;27;24430;-76
2022/12/29 10:21:15;;;;;;;4.67;1.10;;;;;;;10.75;100.00;95361.16;5106458;27;24444;-75
2022/12/29 10:23:45;;;;;;;5.18;1.52;;;;;;;10.77;100.00;95355.88;5112517;27;24446;-76
2022/12/29 10:26:16;;;;;;;2.35;1.23;;;;;;;10.74;100.00;95349.16;5123130;27;24425;-76
2022/12/29 10:28:47;;;;;;;3.38;1.40;;;;;;;10.87;100.00;95346.53;5109068;27;24430;-77
2022/12/29 10:31:19;;;;;;;2.10;1.13;;;;;;;10.74;100.00;95343.16;5121533;27;24445;-77
2022/12/29 10:33:51;;;;;;;1.80;1.10;;;;;;;10.78;100.00;95345.41;5115987;27;24445;-76
2022/12/29 10:36:19;;;;;;;3.90;1.53;;;;;;;10.86;100.00;95347.44;5119097;27;24841;-76
2022/12/29 10:38:52;;;;;;;3.05;1.40;;;;;;;10.99;100.00;95347.44;5121541;27;24448;-76
2022/12/29 10:41:25;;;;;;;2.95;1.13;;;;;;;11.16;100.00;95347.06;5117114;27;24445;-76
2022/12/29 10:43:54;;;;;;;2.40;1.10;;;;;;;11.09;98.98;95340.66;5099625;27;24444;-77
2022/12/29 10:46:23;;;;;;;2.85;1.25;;;;;;;11.13;100.00;95345.50;5116947;27;24987;-77
2022/12/29 10:48:51;;;;;;;2.63;1.33;;;;;;;11.08;100.00;95341.56;5100495;28;24443;-77
2022/12/29 10:51:23;;;;;;;1.73;1.02;;;;;;;10.99;100.00;95343.06;5111589;27;24826;-77
2022/12/29 10:53:54;;;;;;;2.72;1.33;;;;;;;10.96;100.00;95337.28;5110646;27;24494;-77
2022/12/29 10:56:29;;;;;;;2.90;1.20;;;;;;;10.89;100.00;95342.88;5114628;28;24816;-77
2022/12/29 10:58:57;;;;;;;2.80;1.20;;;;;;;10.93;100.00;95348.69;5106898;28;24436;-77
2022/12/29 11:01:32;;;;;;;1.70;0.93;;;;;;;11.01;100.00;95350.72;5120250;28;24441;-77
2022/12/29 11:04:04;;;;;;;2.47;1.00;;;;;;;10.99;97.54;95337.88;5102542;28;24803;-77
2022/12/29 11:06:31;;;;;;;3.17;1.30;;;;;;;10.90;97.44;95346.31;5113999;28;24426;-77
2022/12/29 11:09:02;;;;;;;2.17;0.98;;;;;;;10.98;95.40;95350.97;5109989;28;24483;-77
2022/12/29 11:11:34;;;;;;;2.17;0.95;;;;;;;10.88;96.87;95356.78;5113356;28;24971;-77
2022/12/29 11:14:11;;;;;;;1.33;0.80;;;;;;;10.90;92.22;95341.97;5109151;28;24535;-77
2022/12/29 11:16:37;;;;;;;2.08;1.02;;;;;;;10.86;91.81;95348.31;5113181;28;24449;-77
2022/12/29 11:19:05;;;;;;;2.10;0.82;;;;;;;10.80;92.42;95353.91;5107836;28;24437;-77
2022/12/29 11:21:34;;;;;;;1.80;0.85;;;;;;;10.83;92.00;95358.88;5113854;28;24429;-77
2022/12/29 11:24:02;;;;;;;1.00;0.80;;;;;;;10.72;92.34;95360.56;5121391;27;24452;-76
2022/12/29 11:26:30;;;;;;;0.93;0.50;;;;;;;10.68;93.36;95365.13;5108355;28;24433;-77
2022/12/29 11:29:20;;;;;;;1.65;0.63;;;;;;;10.66;93.19;95364.41;5110018;28;24436;-78
2022/12/29 11:31:48;;;;;;;2.20;0.98;;;;;;;10.56;94.83;95371.16;5120515;28;20801;-77
2022/12/29 11:34:21;;;;;;;4.25;1.02;;;;;;;10.47;97.12;95370.03;5111826;28;24975;-76
2022/12/29 11:36:50;;;;;;;1.40;0.90;;;;;;;10.43;99.05;95373.75;5119006;28;25005;-75
2022/12/29 11:39:29;;;;;;;1.70;0.90;;;;;;;10.26;100.00;95380.06;5098918;28;24984;-76
2022/12/29 11:41:57;;;;;;;2.35;1.23;;;;;;;10.35;100.00;95389.81;5104480;28;24435;-76
2022/12/29 11:44:24;;;;;;;3.15;1.88;;;;;;;10.11;100.00;95378.50;5116630;27;24490;-76
2022/12/29 11:46:52;;;;;;;2.75;1.60;;;;;;;10.00;100.00;95349.94;5113157;28;24437;-76
2022/12/29 11:49:25;;;;;;;4.20;1.63;;;;;;;10.05;100.00;95369.41;5118743;28;24441;-76
2022/12/29 11:51:56;;;;;;;3.10;1.43;;;;;;;10.00;100.00;95363.69;5119326;27;24425;-77
2022/12/29 11:54:25;;;;;;;2.70;1.70;;;;;;;9.96;100.00;95353.66;5119936;28;24461;-77
2022/12/29 11:56:53;;;;;;;7.82;1.77;;;;;;;10.01;100.00;95367.94;5108285;28;24460;-77
2022/12/29 11:59:38;;;;;;;3.85;2.83;;;;;;;9.94;100.00;95359.75;5115806;27;24441;-77
2022/12/29 12:02:21;;;;;;;8.60;4.90;;;;;;;9.93;100.00;95354.69;5108357;28;24441;-77
2022/12/29 12:04:52;;;;;;;11.23;5.50;;;;;;;9.97;100.00;95350.94;5120144;28;24494;-77
2022/12/29 12:07:23;;;;;;;6.80;3.30;;;;;;;9.94;100.00;95353.75;5107706;28;24433;-77
2022/12/29 12:09:54;;;;;;;3.05;2.65;;;;;;;9.92;100.00;95351.25;5113653;28;24440;-77
2022/12/29 12:12:26;;;;;;;3.63;2.28;;;;;;;9.98;100.00;95344.03;5121174;27;24436;-77